sensor_id;sensor_type;location;lat;lon;timestamp;temperature;humidity
29417;DHT22;28421;51.030;4.006;2022-07-23T00:01:21;16.10;99.90
29417;DHT22;28421;51.030;4.006;2022-07-23T00:03:47;16.00;99.90
29417;DHT22;28421;51.030;4.006;2022-07-23T00:06:13;16.00;99.90
29417;DHT22;28421;51.030;4.006;2022-07-23T00:08:39;16.00;99.90
29417;DHT22;28421;51.030;4.006;2022-07-23T00:11:05;15.90;99.90
29417;DHT22;28421;51.030;4.006;2022-07-23T00:13:31;15.90;99.90
29417;DHT22;28421;51.030;4.006;2022-07-23T00:15:56;15.90;99.90
29417;DHT22;28421;51.030;4.006;2022-07-23T00:18:22;16.00;99.90
29417;DHT22;28421;51.030;4.006;2022-07-23T00:20:48;16.00;99.90
29417;DHT22;28421;51.030;4.006;2022-07-23T00:23:14;15.90;99.90
29417;DHT22;28421;51.030;4.006;2022-07-23T00:25:39;15.80;99.90
29417;DHT22;28421;51.030;4.006;2022-07-23T00:28:05;15.80;99.90
29417;DHT22;28421;51.030;4.006;2022-07-23T00:30:32;15.60;99.90
29417;DHT22;28421;51.030;4.006;2022-07-23T00:33:03;15.80;99.90
29417;DHT22;28421;51.030;4.006;2022-07-23T00:35:33;15.70;99.90
29417;DHT22;28421;51.030;4.006;2022-07-23T00:38:01;15.60;99.90
29417;DHT22;28421;51.030;4.006;2022-07-23T00:40:28;15.60;99.90
29417;DHT22;28421;51.030;4.006;2022-07-23T00:42:54;15.50;99.90
29417;DHT22;28421;51.030;4.006;2022-07-23T00:45:20;15.40;99.90
29417;DHT22;28421;51.030;4.006;2022-07-23T00:47:46;15.50;99.90
29417;DHT22;28421;51.030;4.006;2022-07-23T00:50:12;15.50;99.90
29417;DHT22;28421;51.030;4.006;2022-07-23T00:52:39;15.40;99.90
29417;DHT22;28421;51.030;4.006;2022-07-23T00:55:07;15.40;99.90
29417;DHT22;28421;51.030;4.006;2022-07-23T00:57:33;15.40;99.90
29417;DHT22;28421;51.030;4.006;2022-07-23T00:59:59;15.30;99.90
29417;DHT22;28421;51.030;4.006;2022-07-23T01:02:28;15.30;99.90
29417;DHT22;28421;51.030;4.006;2022-07-23T01:04:54;15.30;99.90
29417;DHT22;28421;51.030;4.006;2022-07-23T01:07:20;15.30;99.90
29417;DHT22;28421;51.030;4.006;2022-07-23T01:09:47;15.20;99.90
29417;DHT22;28421;51.030;4.006;2022-07-23T01:12:14;15.10;99.90
29417;DHT22;28421;51.030;4.006;2022-07-23T01:14:40;15.00;99.90
29417;DHT22;28421;51.030;4.006;2022-07-23T01:17:05;15.00;99.90
29417;DHT22;28421;51.030;4.006;2022-07-23T01:19:32;15.00;99.90
29417;DHT22;28421;51.030;4.006;2022-07-23T01:22:01;14.90;99.90
29417;DHT22;28421;51.030;4.006;2022-07-23T01:24:27;14.90;99.90
29417;DHT22;28421;51.030;4.006;2022-07-23T01:26:58;14.80;99.90
29417;DHT22;28421;51.030;4.006;2022-07-23T01:29:24;14.90;99.90
29417;DHT22;28421;51.030;4.006;2022-07-23T01:31:52;14.90;99.90
29417;DHT22;28421;51.030;4.006;2022-07-23T01:34:17;14.90;99.90
29417;DHT22;28421;51.030;4.006;2022-07-23T01:36:43;14.90;99.90
29417;DHT22;28421;51.030;4.006;2022-07-23T01:39:10;14.80;99.90
29417;DHT22;28421;51.030;4.006;2022-07-23T01:41:36;14.90;99.90
29417;DHT22;28421;51.030;4.006;2022-07-23T01:44:02;14.90;99.90
29417;DHT22;28421;51.030;4.006;2022-07-23T01:46:28;15.00;99.90
29417;DHT22;28421;51.030;4.006;2022-07-23T01:48:55;14.90;99.90
29417;DHT22;28421;51.030;4.006;2022-07-23T01:51:41;14.80;99.90
29417;DHT22;28421;51.030;4.006;2022-07-23T01:54:29;14.80;99.90
29417;DHT22;28421;51.030;4.006;2022-07-23T01:56:57;14.80;99.90
29417;DHT22;28421;51.030;4.006;2022-07-23T01:59:24;15.00;99.90
29417;DHT22;28421;51.030;4.006;2022-07-23T02:01:50;15.00;99.90
29417;DHT22;28421;51.030;4.006;2022-07-23T02:04:21;14.60;99.90
29417;DHT22;28421;51.030;4.006;2022-07-23T02:06:47;14.60;99.90
29417;DHT22;28421;51.030;4.006;2022-07-23T02:09:13;14.60;99.90
29417;DHT22;28421;51.030;4.006;2022-07-23T02:11:39;14.50;99.90
29417;DHT22;28421;51.030;4.006;2022-07-23T02:14:05;14.40;99.90
29417;DHT22;28421;51.030;4.006;2022-07-23T02:16:31;14.50;99.90
29417;DHT22;28421;51.030;4.006;2022-07-23T02:19:02;14.40;99.90
29417;DHT22;28421;51.030;4.006;2022-07-23T02:21:28;14.30;99.90
29417;DHT22;28421;51.030;4.006;2022-07-23T02:23:53;14.30;99.90
29417;DHT22;28421;51.030;4.006;2022-07-23T02:26:19;14.20;99.90
29417;DHT22;28421;51.030;4.006;2022-07-23T02:28:46;14.20;99.90
29417;DHT22;28421;51.030;4.006;2022-07-23T02:31:12;14.40;99.90
29417;DHT22;28421;51.030;4.006;2022-07-23T02:33:37;14.40;99.90
29417;DHT22;28421;51.030;4.006;2022-07-23T02:36:03;14.40;99.90
29417;DHT22;28421;51.030;4.006;2022-07-23T02:38:30;14.40;99.90
29417;DHT22;28421;51.030;4.006;2022-07-23T02:40:56;14.30;99.90
29417;DHT22;28421;51.030;4.006;2022-07-23T02:43:22;14.20;99.90
29417;DHT22;28421;51.030;4.006;2022-07-23T02:45:48;14.20;99.90
29417;DHT22;28421;51.030;4.006;2022-07-23T02:50:42;14.20;99.90
29417;DHT22;28421;51.030;4.006;2022-07-23T02:53:09;14.40;99.90
29417;DHT22;28421;51.030;4.006;2022-07-23T02:55:35;14.40;99.90
29417;DHT22;28421;51.030;4.006;2022-07-23T02:58:02;14.30;99.90
29417;DHT22;28421;51.030;4.006;2022-07-23T03:00:28;14.20;99.90
29417;DHT22;28421;51.030;4.006;2022-07-23T03:02:54;14.20;99.90
29417;DHT22;28421;51.030;4.006;2022-07-23T03:05:19;14.20;99.90
29417;DHT22;28421;51.030;4.006;2022-07-23T03:07:45;14.10;99.90
29417;DHT22;28421;51.030;4.006;2022-07-23T03:10:11;14.10;99.90
29417;DHT22;28421;51.030;4.006;2022-07-23T03:12:37;14.10;99.90
29417;DHT22;28421;51.030;4.006;2022-07-23T03:15:03;14.10;99.90
29417;DHT22;28421;51.030;4.006;2022-07-23T03:17:29;13.90;99.90
29417;DHT22;28421;51.030;4.006;2022-07-23T03:19:55;13.90;99.90
29417;DHT22;28421;51.030;4.006;2022-07-23T03:22:22;13.90;99.90
29417;DHT22;28421;51.030;4.006;2022-07-23T03:24:48;14.10;99.90
29417;DHT22;28421;51.030;4.006;2022-07-23T03:27:23;14.00;99.90
29417;DHT22;28421;51.030;4.006;2022-07-23T03:29:54;14.00;99.90
29417;DHT22;28421;51.030;4.006;2022-07-23T03:32:20;13.90;99.90
29417;DHT22;28421;51.030;4.006;2022-07-23T03:34:47;13.90;99.90
29417;DHT22;28421;51.030;4.006;2022-07-23T03:37:13;13.80;99.90
29417;DHT22;28421;51.030;4.006;2022-07-23T03:39:40;13.80;99.90
29417;DHT22;28421;51.030;4.006;2022-07-23T03:42:06;13.50;99.90
29417;DHT22;28421;51.030;4.006;2022-07-23T03:44:32;13.80;99.90
29417;DHT22;28421;51.030;4.006;2022-07-23T03:46:58;14.00;99.90
29417;DHT22;28421;51.030;4.006;2022-07-23T03:49:24;13.80;99.90
29417;DHT22;28421;51.030;4.006;2022-07-23T03:51:50;13.90;99.90
29417;DHT22;28421;51.030;4.006;2022-07-23T03:54:16;13.80;99.90
29417;DHT22;28421;51.030;4.006;2022-07-23T03:56:41;13.80;99.90
29417;DHT22;28421;51.030;4.006;2022-07-23T03:59:08;13.90;99.90
29417;DHT22;28421;51.030;4.006;2022-07-23T04:01:34;13.70;99.90
29417;DHT22;28421;51.030;4.006;2022-07-23T04:04:01;13.70;99.90
29417;DHT22;28421;51.030;4.006;2022-07-23T04:06:27;13.90;99.90
29417;DHT22;28421;51.030;4.006;2022-07-23T04:08:54;13.80;99.90
29417;DHT22;28421;51.030;4.006;2022-07-23T04:11:20;13.80;99.90
29417;DHT22;28421;51.030;4.006;2022-07-23T04:16:12;13.80;99.90
29417;DHT22;28421;51.030;4.006;2022-07-23T04:18:38;13.60;99.90
29417;DHT22;28421;51.030;4.006;2022-07-23T04:21:09;13.50;99.90
29417;DHT22;28421;51.030;4.006;2022-07-23T04:23:37;13.90;99.90
29417;DHT22;28421;51.030;4.006;2022-07-23T04:26:03;13.60;99.90
29417;DHT22;28421;51.030;4.006;2022-07-23T04:28:29;14.10;99.90
29417;DHT22;28421;51.030;4.006;2022-07-23T04:30:59;13.60;99.90
29417;DHT22;28421;51.030;4.006;2022-07-23T04:33:25;13.90;99.90
29417;DHT22;28421;51.030;4.006;2022-07-23T04:35:54;14.20;99.90
29417;DHT22;28421;51.030;4.006;2022-07-23T04:38:20;13.90;99.90
29417;DHT22;28421;51.030;4.006;2022-07-23T04:40:48;14.20;99.90
29417;DHT22;28421;51.030;4.006;2022-07-23T04:43:14;14.10;99.90
29417;DHT22;28421;51.030;4.006;2022-07-23T04:45:45;14.20;99.90
29417;DHT22;28421;51.030;4.006;2022-07-23T04:48:11;14.60;99.90
29417;DHT22;28421;51.030;4.006;2022-07-23T04:50:37;14.30;99.90
29417;DHT22;28421;51.030;4.006;2022-07-23T04:53:04;14.50;99.90
29417;DHT22;28421;51.030;4.006;2022-07-23T04:55:30;14.50;99.90
29417;DHT22;28421;51.030;4.006;2022-07-23T04:57:56;14.30;99.90
29417;DHT22;28421;51.030;4.006;2022-07-23T05:00:22;14.30;99.90
29417;DHT22;28421;51.030;4.006;2022-07-23T05:02:48;14.40;99.90
29417;DHT22;28421;51.030;4.006;2022-07-23T05:05:14;14.50;99.90
29417;DHT22;28421;51.030;4.006;2022-07-23T05:07:41;14.50;99.90
29417;DHT22;28421;51.030;4.006;2022-07-23T05:10:08;14.60;99.90
29417;DHT22;28421;51.030;4.006;2022-07-23T05:12:33;14.80;99.90
29417;DHT22;28421;51.030;4.006;2022-07-23T05:14:59;15.00;99.90
29417;DHT22;28421;51.030;4.006;2022-07-23T05:17:26;15.10;99.90
29417;DHT22;28421;51.030;4.006;2022-07-23T05:19:52;15.20;99.90
29417;DHT22;28421;51.030;4.006;2022-07-23T05:22:18;15.30;99.90
29417;DHT22;28421;51.030;4.006;2022-07-23T05:24:44;15.20;99.90
29417;DHT22;28421;51.030;4.006;2022-07-23T05:27:11;15.20;99.90
29417;DHT22;28421;51.030;4.006;2022-07-23T05:29:37;15.30;99.90
29417;DHT22;28421;51.030;4.006;2022-07-23T05:32:02;15.40;99.90
29417;DHT22;28421;51.030;4.006;2022-07-23T05:34:30;15.50;99.90
29417;DHT22;28421;51.030;4.006;2022-07-23T05:36:57;15.70;99.90
29417;DHT22;28421;51.030;4.006;2022-07-23T05:39:24;15.80;99.90
29417;DHT22;28421;51.030;4.006;2022-07-23T05:41:49;15.90;99.90
29417;DHT22;28421;51.030;4.006;2022-07-23T05:44:15;16.00;99.90
29417;DHT22;28421;51.030;4.006;2022-07-23T05:46:43;16.10;99.90
29417;DHT22;28421;51.030;4.006;2022-07-23T05:49:13;16.20;99.90
29417;DHT22;28421;51.030;4.006;2022-07-23T05:52:06;16.20;99.90
29417;DHT22;28421;51.030;4.006;2022-07-23T05:54:50;16.20;99.90
29417;DHT22;28421;51.030;4.006;2022-07-23T05:57:16;16.20;99.90
29417;DHT22;28421;51.030;4.006;2022-07-23T05:59:42;16.20;99.90
29417;DHT22;28421;51.030;4.006;2022-07-23T06:02:07;16.20;99.90
29417;DHT22;28421;51.030;4.006;2022-07-23T06:04:34;16.50;99.90
29417;DHT22;28421;51.030;4.006;2022-07-23T06:07:26;16.30;99.90
29417;DHT22;28421;51.030;4.006;2022-07-23T06:09:52;16.00;99.90
29417;DHT22;28421;51.030;4.006;2022-07-23T06:12:18;16.10;99.90
29417;DHT22;28421;51.030;4.006;2022-07-23T06:14:44;16.10;99.90
29417;DHT22;28421;51.030;4.006;2022-07-23T06:17:10;16.10;99.90
29417;DHT22;28421;51.030;4.006;2022-07-23T06:19:36;16.40;99.90
29417;DHT22;28421;51.030;4.006;2022-07-23T06:22:02;16.60;99.90
29417;DHT22;28421;51.030;4.006;2022-07-23T06:24:28;16.90;99.90
29417;DHT22;28421;51.030;4.006;2022-07-23T06:26:54;17.00;99.90
29417;DHT22;28421;51.030;4.006;2022-07-23T06:29:20;17.10;99.90
29417;DHT22;28421;51.030;4.006;2022-07-23T06:31:46;17.40;99.90
29417;DHT22;28421;51.030;4.006;2022-07-23T06:34:14;17.30;99.90
29417;DHT22;28421;51.030;4.006;2022-07-23T06:36:40;17.50;99.90
29417;DHT22;28421;51.030;4.006;2022-07-23T06:41:31;17.30;99.90
29417;DHT22;28421;51.030;4.006;2022-07-23T06:43:57;17.30;99.90
29417;DHT22;28421;51.030;4.006;2022-07-23T06:46:23;17.40;99.90
29417;DHT22;28421;51.030;4.006;2022-07-23T06:48:49;17.40;99.90
29417;DHT22;28421;51.030;4.006;2022-07-23T06:51:15;17.40;99.90
29417;DHT22;28421;51.030;4.006;2022-07-23T06:53:41;17.60;99.90
29417;DHT22;28421;51.030;4.006;2022-07-23T06:56:08;17.50;99.90
29417;DHT22;28421;51.030;4.006;2022-07-23T06:58:34;17.30;99.90
29417;DHT22;28421;51.030;4.006;2022-07-23T07:01:00;17.50;99.90
29417;DHT22;28421;51.030;4.006;2022-07-23T07:03:25;17.60;99.90
29417;DHT22;28421;51.030;4.006;2022-07-23T07:05:51;17.50;99.90
29417;DHT22;28421;51.030;4.006;2022-07-23T07:08:17;17.30;99.90
29417;DHT22;28421;51.030;4.006;2022-07-23T07:10:43;17.60;99.90
29417;DHT22;28421;51.030;4.006;2022-07-23T07:13:09;17.70;99.90
29417;DHT22;28421;51.030;4.006;2022-07-23T07:15:34;17.90;99.90
29417;DHT22;28421;51.030;4.006;2022-07-23T07:18:00;18.10;99.90
29417;DHT22;28421;51.030;4.006;2022-07-23T07:20:26;18.00;99.90
29417;DHT22;28421;51.030;4.006;2022-07-23T07:22:51;18.30;99.90
29417;DHT22;28421;51.030;4.006;2022-07-23T07:25:18;18.50;99.90
29417;DHT22;28421;51.030;4.006;2022-07-23T07:27:43;18.60;99.90
29417;DHT22;28421;51.030;4.006;2022-07-23T07:30:10;18.70;99.90
29417;DHT22;28421;51.030;4.006;2022-07-23T07:32:36;18.70;99.90
29417;DHT22;28421;51.030;4.006;2022-07-23T07:35:03;18.80;99.90
29417;DHT22;28421;51.030;4.006;2022-07-23T07:37:29;18.90;99.90
29417;DHT22;28421;51.030;4.006;2022-07-23T07:39:55;19.00;99.90
29417;DHT22;28421;51.030;4.006;2022-07-23T07:42:21;19.20;99.90
29417;DHT22;28421;51.030;4.006;2022-07-23T07:44:46;19.40;99.90
29417;DHT22;28421;51.030;4.006;2022-07-23T07:47:12;19.60;99.90
29417;DHT22;28421;51.030;4.006;2022-07-23T07:49:41;19.70;99.90
29417;DHT22;28421;51.030;4.006;2022-07-23T07:52:07;19.60;99.90
29417;DHT22;28421;51.030;4.006;2022-07-23T07:54:32;19.70;99.90
29417;DHT22;28421;51.030;4.006;2022-07-23T07:56:58;19.90;99.90
29417;DHT22;28421;51.030;4.006;2022-07-23T07:59:24;20.00;99.90
29417;DHT22;28421;51.030;4.006;2022-07-23T08:01:51;20.10;99.90
29417;DHT22;28421;51.030;4.006;2022-07-23T08:04:17;20.20;99.90
29417;DHT22;28421;51.030;4.006;2022-07-23T08:06:43;20.30;99.90
29417;DHT22;28421;51.030;4.006;2022-07-23T08:09:08;20.50;99.90
29417;DHT22;28421;51.030;4.006;2022-07-23T08:11:34;20.60;99.90
29417;DHT22;28421;51.030;4.006;2022-07-23T08:13:59;20.50;99.90
29417;DHT22;28421;51.030;4.006;2022-07-23T08:16:25;20.70;99.90
29417;DHT22;28421;51.030;4.006;2022-07-23T08:18:51;20.90;99.90
29417;DHT22;28421;51.030;4.006;2022-07-23T08:21:17;21.00;99.90
29417;DHT22;28421;51.030;4.006;2022-07-23T08:23:42;21.40;99.90
29417;DHT22;28421;51.030;4.006;2022-07-23T08:26:08;20.70;99.90
29417;DHT22;28421;51.030;4.006;2022-07-23T08:28:34;20.80;99.90
29417;DHT22;28421;51.030;4.006;2022-07-23T08:30:59;20.80;99.90
29417;DHT22;28421;51.030;4.006;2022-07-23T08:33:26;20.90;99.90
29417;DHT22;28421;51.030;4.006;2022-07-23T08:35:51;21.00;99.90
29417;DHT22;28421;51.030;4.006;2022-07-23T08:38:21;21.30;99.90
29417;DHT22;28421;51.030;4.006;2022-07-23T08:40:50;21.70;99.90
29417;DHT22;28421;51.030;4.006;2022-07-23T08:43:19;22.20;99.90
29417;DHT22;28421;51.030;4.006;2022-07-23T08:45:47;22.40;99.90
29417;DHT22;28421;51.030;4.006;2022-07-23T08:48:18;22.50;99.90
29417;DHT22;28421;51.030;4.006;2022-07-23T08:50:53;22.70;99.90
29417;DHT22;28421;51.030;4.006;2022-07-23T08:53:21;22.80;99.90
29417;DHT22;28421;51.030;4.006;2022-07-23T08:55:48;22.10;99.90
29417;DHT22;28421;51.030;4.006;2022-07-23T08:58:15;22.10;99.90
29417;DHT22;28421;51.030;4.006;2022-07-23T09:00:42;22.20;99.90
29417;DHT22;28421;51.030;4.006;2022-07-23T09:03:15;22.40;99.90
29417;DHT22;28421;51.030;4.006;2022-07-23T09:05:41;22.60;99.90
29417;DHT22;28421;51.030;4.006;2022-07-23T09:08:08;21.90;99.90
29417;DHT22;28421;51.030;4.006;2022-07-23T09:15:51;22.30;99.90
29417;DHT22;28421;51.030;4.006;2022-07-23T09:18:17;22.70;99.90
29417;DHT22;28421;51.030;4.006;2022-07-23T09:20:46;22.80;99.90
29417;DHT22;28421;51.030;4.006;2022-07-23T09:23:12;22.90;99.90
29417;DHT22;28421;51.030;4.006;2022-07-23T09:25:37;23.10;99.90
29417;DHT22;28421;51.030;4.006;2022-07-23T09:28:03;23.80;99.90
29417;DHT22;28421;51.030;4.006;2022-07-23T09:30:31;23.80;99.90
29417;DHT22;28421;51.030;4.006;2022-07-23T09:33:11;23.60;99.90
29417;DHT22;28421;51.030;4.006;2022-07-23T09:35:48;23.90;99.90
29417;DHT22;28421;51.030;4.006;2022-07-23T09:38:15;24.00;99.90
29417;DHT22;28421;51.030;4.006;2022-07-23T09:40:40;24.20;99.90
29417;DHT22;28421;51.030;4.006;2022-07-23T09:43:06;23.70;99.40
29417;DHT22;28421;51.030;4.006;2022-07-23T09:45:32;23.70;99.90
29417;DHT22;28421;51.030;4.006;2022-07-23T09:50:36;24.30;99.90
29417;DHT22;28421;51.030;4.006;2022-07-23T09:53:02;24.50;99.90
29417;DHT22;28421;51.030;4.006;2022-07-23T09:55:33;23.90;99.90
29417;DHT22;28421;51.030;4.006;2022-07-23T09:58:02;23.40;99.90
29417;DHT22;28421;51.030;4.006;2022-07-23T10:00:29;23.10;99.90
29417;DHT22;28421;51.030;4.006;2022-07-23T10:02:55;23.60;99.90
29417;DHT22;28421;51.030;4.006;2022-07-23T10:05:42;23.30;99.30
29417;DHT22;28421;51.030;4.006;2022-07-23T10:08:28;23.10;99.90
29417;DHT22;28421;51.030;4.006;2022-07-23T10:11:16;23.30;99.90
29417;DHT22;28421;51.030;4.006;2022-07-23T10:13:59;23.50;99.90
29417;DHT22;28421;51.030;4.006;2022-07-23T10:16:52;23.60;99.70
29417;DHT22;28421;51.030;4.006;2022-07-23T10:19:19;24.20;99.90
29417;DHT22;28421;51.030;4.006;2022-07-23T10:21:55;24.30;99.10
29417;DHT22;28421;51.030;4.006;2022-07-23T10:30:04;23.80;99.60
29417;DHT22;28421;51.030;4.006;2022-07-23T10:35:34;23.90;99.90
29417;DHT22;28421;51.030;4.006;2022-07-23T10:38:27;24.60;99.20
29417;DHT22;28421;51.030;4.006;2022-07-23T10:40:59;24.60;99.20
29417;DHT22;28421;51.030;4.006;2022-07-23T10:43:26;24.60;98.40
29417;DHT22;28421;51.030;4.006;2022-07-23T10:45:52;23.70;99.90
29417;DHT22;28421;51.030;4.006;2022-07-23T10:48:22;24.00;98.60
29417;DHT22;28421;51.030;4.006;2022-07-23T10:53:56;24.10;99.00
29417;DHT22;28421;51.030;4.006;2022-07-23T10:59:22;24.50;99.90
29417;DHT22;28421;51.030;4.006;2022-07-23T11:01:48;24.30;99.90
29417;DHT22;28421;51.030;4.006;2022-07-23T11:04:14;24.40;96.30
29417;DHT22;28421;51.030;4.006;2022-07-23T11:09:31;24.70;96.30
29417;DHT22;28421;51.030;4.006;2022-07-23T11:15:06;24.40;97.20
29417;DHT22;28421;51.030;4.006;2022-07-23T11:20:23;24.50;97.00
29417;DHT22;28421;51.030;4.006;2022-07-23T11:22:52;24.40;97.60
29417;DHT22;28421;51.030;4.006;2022-07-23T11:27:47;24.40;97.30
29417;DHT22;28421;51.030;4.006;2022-07-23T11:35:45;24.70;99.90
29417;DHT22;28421;51.030;4.006;2022-07-23T11:38:31;25.10;96.80
29417;DHT22;28421;51.030;4.006;2022-07-23T11:40:58;24.80;97.60
29417;DHT22;28421;51.030;4.006;2022-07-23T11:43:24;24.70;97.40
29417;DHT22;28421;51.030;4.006;2022-07-23T11:45:53;24.90;97.90
29417;DHT22;28421;51.030;4.006;2022-07-23T11:48:24;25.40;99.90
29417;DHT22;28421;51.030;4.006;2022-07-23T11:50:51;25.10;96.80
29417;DHT22;28421;51.030;4.006;2022-07-23T11:53:32;25.10;99.90
29417;DHT22;28421;51.030;4.006;2022-07-23T11:56:16;25.50;99.90
29417;DHT22;28421;51.030;4.006;2022-07-23T11:58:54;25.40;97.10
29417;DHT22;28421;51.030;4.006;2022-07-23T12:03:53;25.30;96.00
29417;DHT22;28421;51.030;4.006;2022-07-23T12:06:19;25.10;96.70
29417;DHT22;28421;51.030;4.006;2022-07-23T12:08:44;25.00;97.00
29417;DHT22;28421;51.030;4.006;2022-07-23T12:11:12;25.50;97.10
29417;DHT22;28421;51.030;4.006;2022-07-23T12:13:38;25.50;97.30
29417;DHT22;28421;51.030;4.006;2022-07-23T12:16:04;26.00;97.10
29417;DHT22;28421;51.030;4.006;2022-07-23T12:18:30;26.00;96.20
29417;DHT22;28421;51.030;4.006;2022-07-23T12:20:57;26.00;96.80
29417;DHT22;28421;51.030;4.006;2022-07-23T12:23:28;25.70;96.30
29417;DHT22;28421;51.030;4.006;2022-07-23T12:25:54;26.00;96.60
29417;DHT22;28421;51.030;4.006;2022-07-23T12:28:31;26.50;95.80
29417;DHT22;28421;51.030;4.006;2022-07-23T12:30:58;26.50;95.40
29417;DHT22;28421;51.030;4.006;2022-07-23T12:33:32;26.20;96.30
29417;DHT22;28421;51.030;4.006;2022-07-23T12:36:03;25.50;99.90
29417;DHT22;28421;51.030;4.006;2022-07-23T12:38:49;25.70;95.60
29417;DHT22;28421;51.030;4.006;2022-07-23T12:41:15;25.80;96.00
29417;DHT22;28421;51.030;4.006;2022-07-23T12:43:42;26.00;95.80
29417;DHT22;28421;51.030;4.006;2022-07-23T12:46:13;26.10;96.10
29417;DHT22;28421;51.030;4.006;2022-07-23T12:51:15;26.60;96.00
29417;DHT22;28421;51.030;4.006;2022-07-23T12:56:11;26.70;95.40
29417;DHT22;28421;51.030;4.006;2022-07-23T13:06:24;26.80;95.00
29417;DHT22;28421;51.030;4.006;2022-07-23T13:08:49;26.70;95.30
29417;DHT22;28421;51.030;4.006;2022-07-23T13:11:15;26.70;95.00
29417;DHT22;28421;51.030;4.006;2022-07-23T13:13:41;26.50;95.60
29417;DHT22;28421;51.030;4.006;2022-07-23T13:16:07;26.80;94.50
29417;DHT22;28421;51.030;4.006;2022-07-23T13:18:32;26.80;96.00
29417;DHT22;28421;51.030;4.006;2022-07-23T13:20:58;26.70;94.10
29417;DHT22;28421;51.030;4.006;2022-07-23T13:23:24;27.10;95.30
29417;DHT22;28421;51.030;4.006;2022-07-23T13:25:50;27.60;94.80
29417;DHT22;28421;51.030;4.006;2022-07-23T13:28:18;27.50;94.70
29417;DHT22;28421;51.030;4.006;2022-07-23T13:30:45;27.30;94.20
29417;DHT22;28421;51.030;4.006;2022-07-23T13:33:11;26.90;94.60
29417;DHT22;28421;51.030;4.006;2022-07-23T13:35:37;26.70;94.90
29417;DHT22;28421;51.030;4.006;2022-07-23T13:38:04;26.90;95.10
29417;DHT22;28421;51.030;4.006;2022-07-23T13:40:30;27.20;94.90
29417;DHT22;28421;51.030;4.006;2022-07-23T13:42:56;27.40;94.40
29417;DHT22;28421;51.030;4.006;2022-07-23T13:45:22;27.40;95.10
29417;DHT22;28421;51.030;4.006;2022-07-23T13:47:48;27.20;94.00
29417;DHT22;28421;51.030;4.006;2022-07-23T13:50:13;27.20;94.30
29417;DHT22;28421;51.030;4.006;2022-07-23T13:52:42;27.30;95.60
29417;DHT22;28421;51.030;4.006;2022-07-23T13:55:08;27.40;94.30
29417;DHT22;28421;51.030;4.006;2022-07-23T13:57:34;27.00;94.80
29417;DHT22;28421;51.030;4.006;2022-07-23T14:00:00;27.30;94.90
29417;DHT22;28421;51.030;4.006;2022-07-23T14:02:26;27.60;95.40
29417;DHT22;28421;51.030;4.006;2022-07-23T14:04:52;28.10;94.40
29417;DHT22;28421;51.030;4.006;2022-07-23T14:07:18;28.40;94.40
29417;DHT22;28421;51.030;4.006;2022-07-23T14:09:44;28.70;94.10
29417;DHT22;28421;51.030;4.006;2022-07-23T14:12:10;28.90;94.20
29417;DHT22;28421;51.030;4.006;2022-07-23T14:14:36;28.90;94.20
29417;DHT22;28421;51.030;4.006;2022-07-23T14:17:02;28.80;93.70
29417;DHT22;28421;51.030;4.006;2022-07-23T14:19:28;28.60;93.30
29417;DHT22;28421;51.030;4.006;2022-07-23T14:21:54;27.70;94.00
29417;DHT22;28421;51.030;4.006;2022-07-23T14:24:20;27.60;95.20
29417;DHT22;28421;51.030;4.006;2022-07-23T14:26:46;27.50;94.70
29417;DHT22;28421;51.030;4.006;2022-07-23T14:29:11;28.00;94.90
29417;DHT22;28421;51.030;4.006;2022-07-23T14:31:37;28.10;93.90
29417;DHT22;28421;51.030;4.006;2022-07-23T14:34:03;28.40;94.20
29417;DHT22;28421;51.030;4.006;2022-07-23T14:36:29;28.80;93.50
29417;DHT22;28421;51.030;4.006;2022-07-23T14:38:55;29.10;93.60
29417;DHT22;28421;51.030;4.006;2022-07-23T14:41:20;28.70;93.00
29417;DHT22;28421;51.030;4.006;2022-07-23T14:43:46;28.40;93.00
29417;DHT22;28421;51.030;4.006;2022-07-23T14:46:12;27.90;94.30
29417;DHT22;28421;51.030;4.006;2022-07-23T14:48:38;27.70;94.60
29417;DHT22;28421;51.030;4.006;2022-07-23T14:51:04;28.20;94.40
29417;DHT22;28421;51.030;4.006;2022-07-23T14:53:30;27.90;94.20
29417;DHT22;28421;51.030;4.006;2022-07-23T14:55:56;27.80;94.30
29417;DHT22;28421;51.030;4.006;2022-07-23T14:58:25;27.50;93.80
29417;DHT22;28421;51.030;4.006;2022-07-23T15:00:52;27.30;94.40
29417;DHT22;28421;51.030;4.006;2022-07-23T15:03:18;27.70;94.60
29417;DHT22;28421;51.030;4.006;2022-07-23T15:05:43;27.40;94.40
29417;DHT22;28421;51.030;4.006;2022-07-23T15:08:09;27.50;94.20
29417;DHT22;28421;51.030;4.006;2022-07-23T15:10:35;27.00;93.90
29417;DHT22;28421;51.030;4.006;2022-07-23T15:13:02;27.10;94.50
29417;DHT22;28421;51.030;4.006;2022-07-23T15:15:28;27.40;94.70
29417;DHT22;28421;51.030;4.006;2022-07-23T15:17:53;27.80;93.90
29417;DHT22;28421;51.030;4.006;2022-07-23T15:20:19;28.30;93.60
29417;DHT22;28421;51.030;4.006;2022-07-23T15:22:45;28.20;93.70
29417;DHT22;28421;51.030;4.006;2022-07-23T15:25:13;28.10;93.40
29417;DHT22;28421;51.030;4.006;2022-07-23T15:27:39;28.20;93.60
29417;DHT22;28421;51.030;4.006;2022-07-23T15:30:05;28.20;93.10
29417;DHT22;28421;51.030;4.006;2022-07-23T15:32:31;28.50;93.50
29417;DHT22;28421;51.030;4.006;2022-07-23T15:34:57;28.80;92.80
29417;DHT22;28421;51.030;4.006;2022-07-23T15:37:23;28.40;93.00
29417;DHT22;28421;51.030;4.006;2022-07-23T15:39:49;28.50;92.90
29417;DHT22;28421;51.030;4.006;2022-07-23T15:42:15;28.60;93.50
29417;DHT22;28421;51.030;4.006;2022-07-23T15:44:42;28.50;92.80
29417;DHT22;28421;51.030;4.006;2022-07-23T15:47:12;28.50;92.80
29417;DHT22;28421;51.030;4.006;2022-07-23T15:49:38;28.50;93.20
29417;DHT22;28421;51.030;4.006;2022-07-23T15:52:04;28.30;93.10
29417;DHT22;28421;51.030;4.006;2022-07-23T15:54:30;28.30;93.90
29417;DHT22;28421;51.030;4.006;2022-07-23T15:56:56;28.60;92.90
29417;DHT22;28421;51.030;4.006;2022-07-23T15:59:22;29.00;93.00
29417;DHT22;28421;51.030;4.006;2022-07-23T16:01:48;29.20;92.50
29417;DHT22;28421;51.030;4.006;2022-07-23T16:04:13;29.40;92.50
29417;DHT22;28421;51.030;4.006;2022-07-23T16:06:39;29.50;92.30
29417;DHT22;28421;51.030;4.006;2022-07-23T16:09:07;29.70;92.20
29417;DHT22;28421;51.030;4.006;2022-07-23T16:11:33;29.90;91.90
29417;DHT22;28421;51.030;4.006;2022-07-23T16:13:59;29.90;91.90
29417;DHT22;28421;51.030;4.006;2022-07-23T16:16:25;29.60;91.30
29417;DHT22;28421;51.030;4.006;2022-07-23T16:18:52;29.30;91.90
29417;DHT22;28421;51.030;4.006;2022-07-23T16:21:18;28.50;92.20
29417;DHT22;28421;51.030;4.006;2022-07-23T16:23:44;28.40;92.60
29417;DHT22;28421;51.030;4.006;2022-07-23T16:26:10;27.70;92.70
29417;DHT22;28421;51.030;4.006;2022-07-23T16:28:37;27.70;93.20
29417;DHT22;28421;51.030;4.006;2022-07-23T16:31:03;28.00;93.20
29417;DHT22;28421;51.030;4.006;2022-07-23T16:33:28;27.80;93.30